sensor_id;sensor_type;location;lat;lon;timestamp;P1;durP1;ratioP1;P2;durP2;ratioP2
57848;SDS011;68645;44.762;21.516;2023-08-21T00:01:16;58.10;;;40.95;;
57848;SDS011;68645;44.762;21.516;2023-08-21T00:03:42;94.10;;;58.50;;
57848;SDS011;68645;44.762;21.516;2023-08-21T00:06:08;99.28;;;61.45;;
57848;SDS011;68645;44.762;21.516;2023-08-21T00:08:34;137.95;;;79.95;;
57848;SDS011;68645;44.762;21.516;2023-08-21T00:11:00;153.02;;;87.75;;
57848;SDS011;68645;44.762;21.516;2023-08-21T00:13:26;156.75;;;85.00;;
57848;SDS011;68645;44.762;21.516;2023-08-21T00:15:52;114.90;;;68.63;;
57848;SDS011;68645;44.762;21.516;2023-08-21T00:18:20;132.93;;;75.32;;
57848;SDS011;68645;44.762;21.516;2023-08-21T00:20:46;133.32;;;76.10;;
57848;SDS011;68645;44.762;21.516;2023-08-21T00:23:12;115.63;;;68.75;;
57848;SDS011;68645;44.762;21.516;2023-08-21T00:25:38;108.55;;;67.50;;
57848;SDS011;68645;44.762;21.516;2023-08-21T00:28:05;114.50;;;67.38;;
57848;SDS011;68645;44.762;21.516;2023-08-21T00:30:31;112.15;;;65.40;;
57848;SDS011;68645;44.762;21.516;2023-08-21T00:32:57;68.18;;;46.25;;
57848;SDS011;68645;44.762;21.516;2023-08-21T00:35:23;70.18;;;44.28;;
57848;SDS011;68645;44.762;21.516;2023-08-21T00:37:49;66.53;;;43.83;;
57848;SDS011;68645;44.762;21.516;2023-08-21T00:40:16;66.60;;;40.80;;
57848;SDS011;68645;44.762;21.516;2023-08-21T00:42:42;68.97;;;44.17;;
57848;SDS011;68645;44.762;21.516;2023-08-21T00:45:08;69.35;;;43.08;;
57848;SDS011;68645;44.762;21.516;2023-08-21T00:47:35;56.08;;;40.60;;
57848;SDS011;68645;44.762;21.516;2023-08-21T00:50:02;62.65;;;41.22;;
57848;SDS011;68645;44.762;21.516;2023-08-21T00:52:28;55.50;;;37.95;;
57848;SDS011;68645;44.762;21.516;2023-08-21T00:54:54;57.33;;;40.00;;
57848;SDS011;68645;44.762;21.516;2023-08-21T00:57:21;59.83;;;40.92;;
57848;SDS011;68645;44.762;21.516;2023-08-21T00:59:47;57.75;;;35.45;;
57848;SDS011;68645;44.762;21.516;2023-08-21T01:02:13;42.00;;;32.45;;
57848;SDS011;68645;44.762;21.516;2023-08-21T01:04:39;42.35;;;32.42;;
57848;SDS011;68645;44.762;21.516;2023-08-21T01:07:05;42.88;;;33.55;;
57848;SDS011;68645;44.762;21.516;2023-08-21T01:12:23;36.97;;;30.55;;
57848;SDS011;68645;44.762;21.516;2023-08-21T01:14:57;38.22;;;30.75;;
57848;SDS011;68645;44.762;21.516;2023-08-21T01:17:24;33.72;;;30.23;;
57848;SDS011;68645;44.762;21.516;2023-08-21T01:19:51;37.42;;;29.73;;
57848;SDS011;68645;44.762;21.516;2023-08-21T01:22:17;39.25;;;31.08;;
57848;SDS011;68645;44.762;21.516;2023-08-21T01:24:43;36.40;;;30.13;;
57848;SDS011;68645;44.762;21.516;2023-08-21T01:27:10;41.58;;;32.03;;
57848;SDS011;68645;44.762;21.516;2023-08-21T01:29:36;38.35;;;31.88;;
57848;SDS011;68645;44.762;21.516;2023-08-21T01:34:32;40.25;;;32.20;;
57848;SDS011;68645;44.762;21.516;2023-08-21T01:36:59;37.88;;;32.13;;
57848;SDS011;68645;44.762;21.516;2023-08-21T01:39:26;35.85;;;29.55;;
57848;SDS011;68645;44.762;21.516;2023-08-21T01:41:53;36.50;;;31.92;;
57848;SDS011;68645;44.762;21.516;2023-08-21T01:44:21;37.42;;;31.65;;
57848;SDS011;68645;44.762;21.516;2023-08-21T01:46:47;42.45;;;31.85;;
57848;SDS011;68645;44.762;21.516;2023-08-21T01:49:13;48.85;;;34.20;;
57848;SDS011;68645;44.762;21.516;2023-08-21T01:51:39;37.65;;;31.23;;
57848;SDS011;68645;44.762;21.516;2023-08-21T01:54:05;39.13;;;32.40;;
57848;SDS011;68645;44.762;21.516;2023-08-21T01:56:31;34.72;;;30.92;;
57848;SDS011;68645;44.762;21.516;2023-08-21T01:58:58;45.40;;;36.33;;
57848;SDS011;68645;44.762;21.516;2023-08-21T02:01:24;42.15;;;33.75;;
57848;SDS011;68645;44.762;21.516;2023-08-21T02:03:50;42.20;;;35.72;;
57848;SDS011;68645;44.762;21.516;2023-08-21T02:06:16;35.03;;;31.20;;
57848;SDS011;68645;44.762;21.516;2023-08-21T02:08:42;37.08;;;33.13;;
57848;SDS011;68645;44.762;21.516;2023-08-21T02:11:08;33.30;;;29.55;;
57848;SDS011;68645;44.762;21.516;2023-08-21T02:13:35;36.13;;;32.00;;
57848;SDS011;68645;44.762;21.516;2023-08-21T02:16:01;35.50;;;31.20;;
57848;SDS011;68645;44.762;21.516;2023-08-21T02:18:27;35.08;;;30.83;;
57848;SDS011;68645;44.762;21.516;2023-08-21T02:20:53;35.05;;;31.25;;
57848;SDS011;68645;44.762;21.516;2023-08-21T02:23:19;35.63;;;31.08;;
57848;SDS011;68645;44.762;21.516;2023-08-21T02:25:45;35.08;;;31.05;;
57848;SDS011;68645;44.762;21.516;2023-08-21T02:28:11;33.88;;;29.75;;
57848;SDS011;68645;44.762;21.516;2023-08-21T02:30:41;34.83;;;29.42;;
57848;SDS011;68645;44.762;21.516;2023-08-21T02:33:07;37.10;;;31.38;;
57848;SDS011;68645;44.762;21.516;2023-08-21T02:35:33;40.67;;;34.70;;
57848;SDS011;68645;44.762;21.516;2023-08-21T02:37:59;48.45;;;37.70;;
57848;SDS011;68645;44.762;21.516;2023-08-21T02:40:25;50.42;;;37.55;;
57848;SDS011;68645;44.762;21.516;2023-08-21T02:42:51;54.40;;;39.83;;
57848;SDS011;68645;44.762;21.516;2023-08-21T02:45:17;49.58;;;38.05;;
57848;SDS011;68645;44.762;21.516;2023-08-21T02:47:44;45.92;;;36.85;;
57848;SDS011;68645;44.762;21.516;2023-08-21T02:50:10;58.90;;;41.47;;
57848;SDS011;68645;44.762;21.516;2023-08-21T02:52:37;76.57;;;50.28;;
57848;SDS011;68645;44.762;21.516;2023-08-21T02:55:03;101.60;;;59.72;;
57848;SDS011;68645;44.762;21.516;2023-08-21T02:57:30;123.82;;;70.00;;
57848;SDS011;68645;44.762;21.516;2023-08-21T02:59:56;110.82;;;67.40;;
57848;SDS011;68645;44.762;21.516;2023-08-21T03:02:22;94.32;;;58.13;;
57848;SDS011;68645;44.762;21.516;2023-08-21T03:04:48;86.45;;;56.08;;
57848;SDS011;68645;44.762;21.516;2023-08-21T03:07:14;97.18;;;60.63;;
57848;SDS011;68645;44.762;21.516;2023-08-21T03:09:41;93.32;;;58.58;;
57848;SDS011;68645;44.762;21.516;2023-08-21T03:12:07;86.63;;;56.80;;
57848;SDS011;68645;44.762;21.516;2023-08-21T03:14:34;69.60;;;47.90;;
57848;SDS011;68645;44.762;21.516;2023-08-21T03:17:00;73.53;;;51.67;;
57848;SDS011;68645;44.762;21.516;2023-08-21T03:19:26;111.55;;;66.32;;
57848;SDS011;68645;44.762;21.516;2023-08-21T03:21:52;138.15;;;79.93;;
57848;SDS011;68645;44.762;21.516;2023-08-21T03:24:18;156.07;;;82.45;;
57848;SDS011;68645;44.762;21.516;2023-08-21T03:26:44;138.80;;;74.47;;
57848;SDS011;68645;44.762;21.516;2023-08-21T03:29:10;135.70;;;74.32;;
57848;SDS011;68645;44.762;21.516;2023-08-21T03:31:37;142.93;;;79.25;;
57848;SDS011;68645;44.762;21.516;2023-08-21T03:34:03;142.50;;;78.38;;
57848;SDS011;68645;44.762;21.516;2023-08-21T03:36:29;145.82;;;84.80;;
57848;SDS011;68645;44.762;21.516;2023-08-21T03:39:01;154.55;;;86.40;;
57848;SDS011;68645;44.762;21.516;2023-08-21T03:41:29;144.63;;;80.75;;
57848;SDS011;68645;44.762;21.516;2023-08-21T03:43:55;130.27;;;80.38;;
57848;SDS011;68645;44.762;21.516;2023-08-21T03:46:21;115.57;;;69.22;;
57848;SDS011;68645;44.762;21.516;2023-08-21T03:48:47;103.95;;;65.60;;
57848;SDS011;68645;44.762;21.516;2023-08-21T03:51:13;112.25;;;65.68;;
57848;SDS011;68645;44.762;21.516;2023-08-21T03:53:39;110.50;;;65.65;;
57848;SDS011;68645;44.762;21.516;2023-08-21T03:56:05;105.55;;;64.38;;
57848;SDS011;68645;44.762;21.516;2023-08-21T03:58:31;103.85;;;61.03;;
57848;SDS011;68645;44.762;21.516;2023-08-21T04:00:57;101.13;;;60.55;;
57848;SDS011;68645;44.762;21.516;2023-08-21T04:03:24;100.43;;;59.95;;
57848;SDS011;68645;44.762;21.516;2023-08-21T04:05:50;95.88;;;59.35;;
57848;SDS011;68645;44.762;21.516;2023-08-21T04:08:18;105.55;;;60.97;;
57848;SDS011;68645;44.762;21.516;2023-08-21T04:10:45;99.28;;;59.90;;
57848;SDS011;68645;44.762;21.516;2023-08-21T04:13:11;106.05;;;60.30;;
57848;SDS011;68645;44.762;21.516;2023-08-21T04:15:37;85.25;;;52.22;;
57848;SDS011;68645;44.762;21.516;2023-08-21T04:18:03;69.47;;;45.30;;
57848;SDS011;68645;44.762;21.516;2023-08-21T04:20:30;60.83;;;41.90;;
57848;SDS011;68645;44.762;21.516;2023-08-21T04:22:56;53.17;;;38.08;;
57848;SDS011;68645;44.762;21.516;2023-08-21T04:25:22;54.45;;;40.38;;
57848;SDS011;68645;44.762;21.516;2023-08-21T04:27:49;52.33;;;37.80;;
57848;SDS011;68645;44.762;21.516;2023-08-21T04:30:15;48.70;;;36.63;;
57848;SDS011;68645;44.762;21.516;2023-08-21T04:32:41;46.65;;;35.53;;
57848;SDS011;68645;44.762;21.516;2023-08-21T04:35:07;51.45;;;35.80;;
57848;SDS011;68645;44.762;21.516;2023-08-21T04:37:34;51.13;;;37.95;;
57848;SDS011;68645;44.762;21.516;2023-08-21T04:40:00;55.75;;;38.08;;
57848;SDS011;68645;44.762;21.516;2023-08-21T04:42:26;58.78;;;41.13;;
57848;SDS011;68645;44.762;21.516;2023-08-21T04:44:53;73.90;;;44.53;;
57848;SDS011;68645;44.762;21.516;2023-08-21T04:47:25;97.88;;;55.33;;
57848;SDS011;68645;44.762;21.516;2023-08-21T04:49:52;127.72;;;68.68;;
57848;SDS011;68645;44.762;21.516;2023-08-21T04:52:19;148.90;;;77.40;;
57848;SDS011;68645;44.762;21.516;2023-08-21T04:54:45;150.88;;;84.80;;
57848;SDS011;68645;44.762;21.516;2023-08-21T04:57:11;143.60;;;82.25;;
57848;SDS011;68645;44.762;21.516;2023-08-21T04:59:38;160.52;;;86.03;;
57848;SDS011;68645;44.762;21.516;2023-08-21T05:02:04;146.88;;;80.32;;
57848;SDS011;68645;44.762;21.516;2023-08-21T05:04:30;136.25;;;70.97;;
57848;SDS011;68645;44.762;21.516;2023-08-21T05:06:56;128.70;;;72.57;;
57848;SDS011;68645;44.762;21.516;2023-08-21T05:09:22;130.77;;;73.45;;
57848;SDS011;68645;44.762;21.516;2023-08-21T05:11:48;95.13;;;57.50;;
57848;SDS011;68645;44.762;21.516;2023-08-21T05:14:14;92.78;;;56.40;;
57848;SDS011;68645;44.762;21.516;2023-08-21T05:16:40;94.93;;;57.38;;
57848;SDS011;68645;44.762;21.516;2023-08-21T05:19:07;77.22;;;46.35;;
57848;SDS011;68645;44.762;21.516;2023-08-21T05:21:33;58.75;;;38.95;;
57848;SDS011;68645;44.762;21.516;2023-08-21T05:23:59;62.95;;;39.90;;
57848;SDS011;68645;44.762;21.516;2023-08-21T05:26:25;55.40;;;38.58;;
57848;SDS011;68645;44.762;21.516;2023-08-21T05:28:51;49.20;;;34.97;;
57848;SDS011;68645;44.762;21.516;2023-08-21T05:31:17;52.70;;;36.70;;
57848;SDS011;68645;44.762;21.516;2023-08-21T05:33:43;46.35;;;33.58;;
57848;SDS011;68645;44.762;21.516;2023-08-21T05:36:10;56.33;;;37.97;;
57848;SDS011;68645;44.762;21.516;2023-08-21T05:38:36;74.57;;;46.17;;
57848;SDS011;68645;44.762;21.516;2023-08-21T05:41:02;84.22;;;52.28;;
57848;SDS011;68645;44.762;21.516;2023-08-21T05:43:28;95.97;;;56.70;;
57848;SDS011;68645;44.762;21.516;2023-08-21T05:45:55;156.95;;;79.63;;
57848;SDS011;68645;44.762;21.516;2023-08-21T05:48:21;113.80;;;61.28;;
57848;SDS011;68645;44.762;21.516;2023-08-21T05:50:51;95.28;;;55.17;;
57848;SDS011;68645;44.762;21.516;2023-08-21T05:53:17;85.55;;;52.35;;
57848;SDS011;68645;44.762;21.516;2023-08-21T05:55:43;90.10;;;52.03;;
57848;SDS011;68645;44.762;21.516;2023-08-21T05:58:09;79.43;;;47.45;;
57848;SDS011;68645;44.762;21.516;2023-08-21T06:00:37;78.53;;;47.97;;
57848;SDS011;68645;44.762;21.516;2023-08-21T06:03:04;89.32;;;53.85;;
57848;SDS011;68645;44.762;21.516;2023-08-21T06:05:30;107.60;;;63.28;;
57848;SDS011;68645;44.762;21.516;2023-08-21T06:07:56;102.53;;;56.72;;
57848;SDS011;68645;44.762;21.516;2023-08-21T06:10:22;106.00;;;62.10;;
57848;SDS011;68645;44.762;21.516;2023-08-21T06:12:49;104.80;;;58.10;;
57848;SDS011;68645;44.762;21.516;2023-08-21T06:15:16;64.43;;;42.92;;
57848;SDS011;68645;44.762;21.516;2023-08-21T06:17:42;47.97;;;34.15;;
57848;SDS011;68645;44.762;21.516;2023-08-21T06:20:08;33.63;;;27.02;;
57848;SDS011;68645;44.762;21.516;2023-08-21T06:22:35;35.80;;;32.22;;
57848;SDS011;68645;44.762;21.516;2023-08-21T06:25:01;69.20;;;62.05;;
57848;SDS011;68645;44.762;21.516;2023-08-21T06:27:27;47.88;;;42.78;;
57848;SDS011;68645;44.762;21.516;2023-08-21T06:29:53;59.60;;;54.10;;
57848;SDS011;68645;44.762;21.516;2023-08-21T06:32:19;47.60;;;42.85;;
57848;SDS011;68645;44.762;21.516;2023-08-21T06:34:46;42.83;;;38.78;;
57848;SDS011;68645;44.762;21.516;2023-08-21T06:37:12;40.38;;;36.63;;
57848;SDS011;68645;44.762;21.516;2023-08-21T06:39:38;38.85;;;35.03;;
57848;SDS011;68645;44.762;21.516;2023-08-21T06:42:04;40.17;;;36.13;;
57848;SDS011;68645;44.762;21.516;2023-08-21T06:44:30;40.50;;;36.05;;
57848;SDS011;68645;44.762;21.516;2023-08-21T06:46:57;38.20;;;33.65;;
57848;SDS011;68645;44.762;21.516;2023-08-21T06:49:23;38.58;;;34.85;;
57848;SDS011;68645;44.762;21.516;2023-08-21T06:51:49;40.25;;;36.25;;
57848;SDS011;68645;44.762;21.516;2023-08-21T06:54:16;36.67;;;33.13;;
57848;SDS011;68645;44.762;21.516;2023-08-21T06:56:43;37.47;;;33.33;;
57848;SDS011;68645;44.762;21.516;2023-08-21T06:59:09;34.85;;;31.20;;
57848;SDS011;68645;44.762;21.516;2023-08-21T07:01:35;37.85;;;31.30;;
57848;SDS011;68645;44.762;21.516;2023-08-21T07:04:01;40.47;;;31.95;;
57848;SDS011;68645;44.762;21.516;2023-08-21T07:06:28;39.10;;;30.75;;
57848;SDS011;68645;44.762;21.516;2023-08-21T07:08:54;34.85;;;31.08;;
57848;SDS011;68645;44.762;21.516;2023-08-21T07:11:20;43.05;;;30.85;;
57848;SDS011;68645;44.762;21.516;2023-08-21T07:13:46;34.13;;;28.33;;
57848;SDS011;68645;44.762;21.516;2023-08-21T07:16:12;44.75;;;31.00;;
57848;SDS011;68645;44.762;21.516;2023-08-21T07:18:38;36.92;;;29.70;;
57848;SDS011;68645;44.762;21.516;2023-08-21T07:21:05;37.60;;;30.17;;
57848;SDS011;68645;44.762;21.516;2023-08-21T07:23:31;36.85;;;29.77;;
57848;SDS011;68645;44.762;21.516;2023-08-21T07:25:59;38.28;;;30.73;;
57848;SDS011;68645;44.762;21.516;2023-08-21T07:28:25;40.65;;;31.48;;
57848;SDS011;68645;44.762;21.516;2023-08-21T07:30:55;41.75;;;31.23;;
57848;SDS011;68645;44.762;21.516;2023-08-21T07:33:21;44.50;;;32.38;;
57848;SDS011;68645;44.762;21.516;2023-08-21T07:35:56;40.22;;;31.35;;
57848;SDS011;68645;44.762;21.516;2023-08-21T07:38:22;47.70;;;33.00;;
57848;SDS011;68645;44.762;21.516;2023-08-21T07:40:48;40.58;;;30.73;;
57848;SDS011;68645;44.762;21.516;2023-08-21T07:43:14;39.70;;;28.50;;
57848;SDS011;68645;44.762;21.516;2023-08-21T07:45:40;36.33;;;28.80;;
57848;SDS011;68645;44.762;21.516;2023-08-21T07:48:06;33.20;;;29.65;;
57848;SDS011;68645;44.762;21.516;2023-08-21T07:50:32;39.42;;;30.02;;
57848;SDS011;68645;44.762;21.516;2023-08-21T07:52:58;46.17;;;33.30;;
57848;SDS011;68645;44.762;21.516;2023-08-21T07:55:25;37.50;;;28.73;;
57848;SDS011;68645;44.762;21.516;2023-08-21T07:57:51;40.20;;;30.95;;
57848;SDS011;68645;44.762;21.516;2023-08-21T08:00:17;44.20;;;33.40;;
57848;SDS011;68645;44.762;21.516;2023-08-21T08:02:44;37.58;;;31.38;;
57848;SDS011;68645;44.762;21.516;2023-08-21T08:05:10;43.50;;;30.65;;
57848;SDS011;68645;44.762;21.516;2023-08-21T08:07:36;36.88;;;30.90;;
57848;SDS011;68645;44.762;21.516;2023-08-21T08:10:02;33.30;;;28.80;;
57848;SDS011;68645;44.762;21.516;2023-08-21T08:12:28;33.63;;;28.08;;
57848;SDS011;68645;44.762;21.516;2023-08-21T08:14:55;37.42;;;29.38;;
57848;SDS011;68645;44.762;21.516;2023-08-21T08:17:21;31.70;;;28.40;;
57848;SDS011;68645;44.762;21.516;2023-08-21T08:19:47;31.08;;;26.75;;
57848;SDS011;68645;44.762;21.516;2023-08-21T08:22:13;28.58;;;25.17;;
57848;SDS011;68645;44.762;21.516;2023-08-21T08:24:39;28.48;;;24.10;;
57848;SDS011;68645;44.762;21.516;2023-08-21T08:27:06;27.83;;;24.85;;
57848;SDS011;68645;44.762;21.516;2023-08-21T08:29:32;27.98;;;25.08;;
57848;SDS011;68645;44.762;21.516;2023-08-21T08:31:59;27.02;;;24.00;;
57848;SDS011;68645;44.762;21.516;2023-08-21T08:34:25;28.38;;;23.52;;
57848;SDS011;68645;44.762;21.516;2023-08-21T08:36:51;30.90;;;26.65;;
57848;SDS011;68645;44.762;21.516;2023-08-21T08:39:17;35.05;;;31.10;;
57848;SDS011;68645;44.762;21.516;2023-08-21T08:41:44;33.67;;;30.17;;
57848;SDS011;68645;44.762;21.516;2023-08-21T08:44:12;29.25;;;26.10;;
57848;SDS011;68645;44.762;21.516;2023-08-21T08:46:38;31.40;;;27.83;;
57848;SDS011;68645;44.762;21.516;2023-08-21T08:49:04;26.45;;;23.13;;
57848;SDS011;68645;44.762;21.516;2023-08-21T08:51:31;24.95;;;22.27;;
57848;SDS011;68645;44.762;21.516;2023-08-21T08:53:57;21.90;;;19.77;;
57848;SDS011;68645;44.762;21.516;2023-08-21T08:56:24;40.70;;;29.20;;
57848;SDS011;68645;44.762;21.516;2023-08-21T08:58:50;25.33;;;22.75;;
57848;SDS011;68645;44.762;21.516;2023-08-21T09:01:17;27.52;;;24.80;;
57848;SDS011;68645;44.762;21.516;2023-08-21T09:03:43;26.48;;;23.83;;
57848;SDS011;68645;44.762;21.516;2023-08-21T09:06:10;22.27;;;19.92;;
57848;SDS011;68645;44.762;21.516;2023-08-21T09:08:36;27.88;;;25.05;;
57848;SDS011;68645;44.762;21.516;2023-08-21T09:11:02;22.83;;;20.42;;
57848;SDS011;68645;44.762;21.516;2023-08-21T09:13:29;20.80;;;18.73;;
57848;SDS011;68645;44.762;21.516;2023-08-21T09:15:56;20.55;;;18.45;;
57848;SDS011;68645;44.762;21.516;2023-08-21T09:18:22;21.48;;;19.30;;
57848;SDS011;68645;44.762;21.516;2023-08-21T09:20:49;22.77;;;20.60;;
57848;SDS011;68645;44.762;21.516;2023-08-21T09:23:15;22.83;;;20.73;;
57848;SDS011;68645;44.762;21.516;2023-08-21T09:25:43;22.17;;;19.83;;
57848;SDS011;68645;44.762;21.516;2023-08-21T09:28:11;20.65;;;18.17;;
57848;SDS011;68645;44.762;21.516;2023-08-21T09:30:45;19.33;;;17.00;;
57848;SDS011;68645;44.762;21.516;2023-08-21T09:33:11;17.45;;;15.52;;
57848;SDS011;68645;44.762;21.516;2023-08-21T09:35:37;16.95;;;15.35;;
57848;SDS011;68645;44.762;21.516;2023-08-21T09:38:05;17.45;;;15.85;;
57848;SDS011;68645;44.762;21.516;2023-08-21T09:40:32;17.85;;;16.02;;
57848;SDS011;68645;44.762;21.516;2023-08-21T09:42:58;20.80;;;17.90;;
57848;SDS011;68645;44.762;21.516;2023-08-21T09:45:25;19.50;;;17.17;;
57848;SDS011;68645;44.762;21.516;2023-08-21T09:47:52;17.70;;;16.10;;
57848;SDS011;68645;44.762;21.516;2023-08-21T09:50:18;17.90;;;16.20;;
57848;SDS011;68645;44.762;21.516;2023-08-21T09:52:45;18.05;;;16.13;;
57848;SDS011;68645;44.762;21.516;2023-08-21T09:55:13;17.40;;;15.60;;
57848;SDS011;68645;44.762;21.516;2023-08-21T09:57:42;17.83;;;16.02;;
57848;SDS011;68645;44.762;21.516;2023-08-21T10:00:09;17.23;;;15.38;;
57848;SDS011;68645;44.762;21.516;2023-08-21T10:02:44;18.33;;;16.40;;
57848;SDS011;68645;44.762;21.516;2023-08-21T10:05:13;17.70;;;16.00;;
57848;SDS011;68645;44.762;21.516;2023-08-21T10:07:39;16.17;;;14.48;;
57848;SDS011;68645;44.762;21.516;2023-08-21T10:10:07;18.67;;;15.02;;
57848;SDS011;68645;44.762;21.516;2023-08-21T10:12:34;16.30;;;14.32;;
57848;SDS011;68645;44.762;21.516;2023-08-21T10:15:00;15.55;;;14.05;;
57848;SDS011;68645;44.762;21.516;2023-08-21T10:17:27;16.20;;;14.55;;
57848;SDS011;68645;44.762;21.516;2023-08-21T10:19:53;15.75;;;14.32;;
57848;SDS011;68645;44.762;21.516;2023-08-21T10:25:07;17.65;;;14.52;;
57848;SDS011;68645;44.762;21.516;2023-08-21T10:27:40;15.38;;;13.90;;
57848;SDS011;68645;44.762;21.516;2023-08-21T10:30:13;17.20;;;14.77;;
57848;SDS011;68645;44.762;21.516;2023-08-21T10:32:44;14.35;;;12.95;;
57848;SDS011;68645;44.762;21.516;2023-08-21T10:37:36;21.75;;;15.45;;
57848;SDS011;68645;44.762;21.516;2023-08-21T10:40:22;16.63;;;13.82;;
57848;SDS011;68645;44.762;21.516;2023-08-21T10:42:49;13.50;;;12.20;;
57848;SDS011;68645;44.762;21.516;2023-08-21T10:45:15;16.35;;;13.55;;
57848;SDS011;68645;44.762;21.516;2023-08-21T10:47:41;14.20;;;12.77;;
57848;SDS011;68645;44.762;21.516;2023-08-21T10:50:08;14.23;;;12.82;;
57848;SDS011;68645;44.762;21.516;2023-08-21T10:52:39;14.15;;;12.63;;
57848;SDS011;68645;44.762;21.516;2023-08-21T10:55:07;12.18;;;10.98;;
57848;SDS011;68645;44.762;21.516;2023-08-21T10:57:36;13.10;;;10.73;;
57848;SDS011;68645;44.762;21.516;2023-08-21T11:00:04;12.50;;;11.27;;
57848;SDS011;68645;44.762;21.516;2023-08-21T11:02:32;15.63;;;10.73;;
57848;SDS011;68645;44.762;21.516;2023-08-21T11:04:59;11.25;;;10.25;;
57848;SDS011;68645;44.762;21.516;2023-08-21T11:07:26;14.25;;;10.02;;
57848;SDS011;68645;44.762;21.516;2023-08-21T11:09:52;12.75;;;10.15;;
57848;SDS011;68645;44.762;21.516;2023-08-21T11:12:19;11.15;;;10.05;;
57848;SDS011;68645;44.762;21.516;2023-08-21T11:14:45;11.75;;;9.88;;
57848;SDS011;68645;44.762;21.516;2023-08-21T11:17:12;10.27;;;9.23;;
57848;SDS011;68645;44.762;21.516;2023-08-21T11:19:38;10.70;;;9.65;;
57848;SDS011;68645;44.762;21.516;2023-08-21T11:22:05;12.85;;;9.93;;
57848;SDS011;68645;44.762;21.516;2023-08-21T11:27:13;9.77;;;8.25;;
57848;SDS011;68645;44.762;21.516;2023-08-21T11:29:43;9.50;;;8.50;;
57848;SDS011;68645;44.762;21.516;2023-08-21T11:34:36;9.75;;;8.85;;
57848;SDS011;68645;44.762;21.516;2023-08-21T11:37:03;9.88;;;8.43;;
57848;SDS011;68645;44.762;21.516;2023-08-21T11:39:46;10.45;;;8.50;;
57848;SDS011;68645;44.762;21.516;2023-08-21T11:42:13;9.02;;;8.13;;
57848;SDS011;68645;44.762;21.516;2023-08-21T11:44:40;12.30;;;8.52;;
57848;SDS011;68645;44.762;21.516;2023-08-21T11:47:06;12.35;;;8.02;;
57848;SDS011;68645;44.762;21.516;2023-08-21T11:49:32;8.82;;;7.50;;
57848;SDS011;68645;44.762;21.516;2023-08-21T11:51:58;8.85;;;8.02;;
57848;SDS011;68645;44.762;21.516;2023-08-21T11:54:25;10.40;;;8.43;;
57848;SDS011;68645;44.762;21.516;2023-08-21T11:56:51;9.95;;;8.77;;
57848;SDS011;68645;44.762;21.516;2023-08-21T11:59:22;11.93;;;8.75;;
57848;SDS011;68645;44.762;21.516;2023-08-21T12:01:51;9.43;;;8.48;;
57848;SDS011;68645;44.762;21.516;2023-08-21T12:04:17;9.90;;;8.20;;
57848;SDS011;68645;44.762;21.516;2023-08-21T12:06:44;8.95;;;7.40;;
57848;SDS011;68645;44.762;21.516;2023-08-21T12:09:11;8.70;;;7.00;;
57848;SDS011;68645;44.762;21.516;2023-08-21T12:11:37;9.00;;;8.07;;
57848;SDS011;68645;44.762;21.516;2023-08-21T12:14:03;10.25;;;8.35;;
57848;SDS011;68645;44.762;21.516;2023-08-21T12:16:29;9.18;;;7.53;;
57848;SDS011;68645;44.762;21.516;2023-08-21T12:18:56;11.68;;;8.07;;
57848;SDS011;68645;44.762;21.516;2023-08-21T12:21:25;9.88;;;8.15;;
57848;SDS011;68645;44.762;21.516;2023-08-21T12:23:51;39.00;;;35.10;;
57848;SDS011;68645;44.762;21.516;2023-08-21T12:26:17;12.65;;;9.27;;
57848;SDS011;68645;44.762;21.516;2023-08-21T12:28:47;11.97;;;10.73;;
57848;SDS011;68645;44.762;21.516;2023-08-21T12:31:13;11.45;;;8.95;;
57848;SDS011;68645;44.762;21.516;2023-08-21T12:33:39;10.65;;;8.50;;
57848;SDS011;68645;44.762;21.516;2023-08-21T12:36:06;13.43;;;12.15;;
57848;SDS011;68645;44.762;21.516;2023-08-21T12:38:33;9.18;;;8.10;;
57848;SDS011;68645;44.762;21.516;2023-08-21T12:41:03;14.85;;;12.73;;
57848;SDS011;68645;44.762;21.516;2023-08-21T12:43:30;11.30;;;9.05;;
57848;SDS011;68645;44.762;21.516;2023-08-21T12:45:57;13.93;;;8.80;;
57848;SDS011;68645;44.762;21.516;2023-08-21T12:48:23;9.40;;;8.50;;
57848;SDS011;68645;44.762;21.516;2023-08-21T12:50:50;10.50;;;9.32;;
57848;SDS011;68645;44.762;21.516;2023-08-21T12:53:16;16.50;;;11.75;;
57848;SDS011;68645;44.762;21.516;2023-08-21T12:55:42;9.48;;;8.10;;
57848;SDS011;68645;44.762;21.516;2023-08-21T12:58:08;9.10;;;7.13;;
57848;SDS011;68645;44.762;21.516;2023-08-21T13:00:34;9.90;;;8.20;;
57848;SDS011;68645;44.762;21.516;2023-08-21T13:03:01;9.32;;;7.60;;
57848;SDS011;68645;44.762;21.516;2023-08-21T13:05:28;8.60;;;7.68;;
57848;SDS011;68645;44.762;21.516;2023-08-21T13:07:54;10.68;;;7.40;;
57848;SDS011;68645;44.762;21.516;2023-08-21T13:10:20;9.23;;;8.23;;
57848;SDS011;68645;44.762;21.516;2023-08-21T13:12:46;8.30;;;7.57;;
57848;SDS011;68645;44.762;21.516;2023-08-21T13:15:14;11.38;;;7.50;;
57848;SDS011;68645;44.762;21.516;2023-08-21T13:17:40;8.63;;;7.07;;
57848;SDS011;68645;44.762;21.516;2023-08-21T13:20:07;9.70;;;7.22;;
57848;SDS011;68645;44.762;21.516;2023-08-21T13:22:44;9.10;;;7.53;;
57848;SDS011;68645;44.762;21.516;2023-08-21T13:25:10;10.23;;;7.80;;
57848;SDS011;68645;44.762;21.516;2023-08-21T13:27:36;7.78;;;7.07;;
57848;SDS011;68645;44.762;21.516;2023-08-21T13:30:02;8.60;;;7.07;;
57848;SDS011;68645;44.762;21.516;2023-08-21T13:32:30;9.07;;;8.23;;
57848;SDS011;68645;44.762;21.516;2023-08-21T13:34:56;9.15;;;7.43;;
57848;SDS011;68645;44.762;21.516;2023-08-21T13:37:23;9.15;;;7.07;;
57848;SDS011;68645;44.762;21.516;2023-08-21T13:39:49;9.32;;;7.63;;
57848;SDS011;68645;44.762;21.516;2023-08-21T13:42:15;16.15;;;14.48;;
57848;SDS011;68645;44.762;21.516;2023-08-21T13:44:41;19.67;;;17.65;;
57848;SDS011;68645;44.762;21.516;2023-08-21T13:47:07;10.73;;;8.32;;
57848;SDS011;68645;44.762;21.516;2023-08-21T13:49:33;9.48;;;8.57;;
57848;SDS011;68645;44.762;21.516;2023-08-21T13:51:59;12.52;;;10.70;;
57848;SDS011;68645;44.762;21.516;2023-08-21T13:54:25;9.07;;;8.18;;
57848;SDS011;68645;44.762;21.516;2023-08-21T13:56:51;9.45;;;8.57;;
57848;SDS011;68645;44.762;21.516;2023-08-21T13:59:17;9.15;;;7.82;;
57848;SDS011;68645;44.762;21.516;2023-08-21T14:01:43;9.15;;;7.90;;
57848;SDS011;68645;44.762;21.516;2023-08-21T14:04:10;10.27;;;8.20;;
57848;SDS011;68645;44.762;21.516;2023-08-21T14:06:36;8.30;;;7.30;;
57848;SDS011;68645;44.762;21.516;2023-08-21T14:09:03;9.32;;;7.57;;
57848;SDS011;68645;44.762;21.516;2023-08-21T14:11:29;8.77;;;7.57;;
57848;SDS011;68645;44.762;21.516;2023-08-21T14:13:55;9.30;;;6.80;;
57848;SDS011;68645;44.762;21.516;2023-08-21T14:16:21;9.95;;;7.60;;
57848;SDS011;68645;44.762;21.516;2023-08-21T14:18:47;11.30;;;9.02;;
57848;SDS011;68645;44.762;21.516;2023-08-21T14:21:13;9.48;;;7.00;;
57848;SDS011;68645;44.762;21.516;2023-08-21T14:23:39;9.05;;;8.20;;